Time;durP1;ratioP1;P1;durP2;ratioP2;P2;SDS_P1;SDS_P2;PMS_P1;PMS_P2;Temp;Humidity;BMP_temperature;BMP_pressure;BME280_temperature;BME280_humidity;BME280_pressure;Samples;Min_cycle;Max_cycle;Signal;HPM_P1;HPM_P2
2023/11/02 00:02:10;;;;;;;4.80;4.10;;;;;;;7.84;100.00;96698.31;1222521;75;2995506;-71
2023/11/02 00:04:46;;;;;;;4.85;3.90;;;;;;;7.84;100.00;96692.09;1222590;75;3077656;-70
2023/11/02 00:07:19;;;;;;;3.65;2.80;;;;;;;7.86;100.00;96695.84;1212477;75;3931245;-67
2023/11/02 00:09:54;;;;;;;3.55;2.70;;;;;;;7.76;100.00;96689.03;1209275;75;3984009;-69
2023/11/02 00:12:31;;;;;;;3.60;2.65;;;;;;;7.74;100.00;96682.56;1211126;75;3994139;-68
2023/11/02 00:15:09;;;;;;;3.35;2.30;;;;;;;7.81;100.00;96690.31;1209735;75;4059582;-69
2023/11/02 00:18:03;;;;;;;2.60;2.10;;;;;;;7.90;100.00;96685.47;1221825;75;3115507;-67
2023/11/02 00:20:40;;;;;;;2.35;1.85;;;;;;;7.90;100.00;96679.28;1198864;75;5016650;-69
2023/11/02 00:23:15;;;;;;;2.40;1.80;;;;;;;7.94;100.00;96671.63;1225799;75;2919208;-68
2023/11/02 00:25:57;;;;;;;2.00;1.60;;;;;;;7.92;100.00;96667.91;1221925;75;3072847;-69
2023/11/02 00:28:31;;;;;;;2.15;1.60;;;;;;;7.84;100.00;96676.50;1225734;75;2917911;-69
2023/11/02 00:31:05;;;;;;;4.50;2.70;;;;;;;7.50;100.00;96680.84;1222085;75;2978027;-69
2023/11/02 00:33:38;;;;;;;4.45;3.00;;;;;;;7.46;100.00;96677.59;1199728;75;4902663;-70
2023/11/02 00:36:15;;;;;;;2.45;2.10;;;;;;;7.81;100.00;96669.28;1224516;75;2917742;-68
2023/11/02 00:38:48;;;;;;;5.00;2.60;;;;;;;7.46;100.00;96670.16;1224152;75;2921166;-72
2023/11/02 00:41:21;;;;;;;2.70;2.20;;;;;;;7.67;100.00;96676.34;1225440;75;2937880;-70
2023/11/02 00:43:53;;;;;;;3.00;2.30;;;;;;;7.63;100.00;96670.34;1224633;75;2931664;-71
2023/11/02 00:46:26;;;;;;;2.50;2.00;;;;;;;7.73;100.00;96667.47;1206344;75;4058354;-68
2023/11/02 00:48:59;;;;;;;3.25;2.40;;;;;;;7.44;100.00;96666.44;1224477;75;2922691;-68
2023/11/02 00:51:35;;;;;;;3.10;2.40;;;;;;;7.44;100.00;96666.44;1226057;75;2920869;-73
2023/11/02 00:54:11;;;;;;;3.05;2.50;;;;;;;7.46;100.00;96662.00;1221822;75;3081634;-72
2023/11/02 00:56:44;;;;;;;1.90;1.75;;;;;;;7.60;100.00;96657.69;1198828;75;4996248;-71
2023/11/02 00:59:22;;;;;;;2.15;1.70;;;;;;;7.36;100.00;96649.78;1224853;75;2931369;-67
2023/11/02 01:01:55;;;;;;;2.10;1.80;;;;;;;7.53;100.00;96654.63;1222046;75;3080856;-70
2023/11/02 01:04:59;;;;;;;2.55;1.80;;;;;;;7.28;100.00;96645.94;1220709;75;3107197;-74
2023/11/02 01:07:35;;;;;;;2.30;1.85;;;;;;;7.28;100.00;96645.22;1223962;75;2957731;-70
2023/11/02 01:10:10;;;;;;;1.95;1.40;;;;;;;7.41;100.00;96634.72;1224708;75;2928680;-72
2023/11/02 01:12:42;;;;;;;1.70;1.60;;;;;;;7.35;100.00;96631.19;1223708;75;2947524;-67
2023/11/02 01:16:00;;;;;;;2.60;2.25;;;;;;;7.04;100.00;96621.69;1223706;75;2922124;-68
2023/11/02 01:18:33;;;;;;;2.00;1.75;;;;;;;7.20;100.00;96628.53;1223239;75;2975203;-70
2023/11/02 01:21:08;;;;;;;2.10;1.70;;;;;;;7.27;100.00;96633.56;1224984;75;2927307;-70
2023/11/02 01:23:44;;;;;;;1.70;1.60;;;;;;;7.25;100.00;96623.16;1223895;75;3004186;-71
2023/11/02 01:26:57;;;;;;;2.15;1.30;;;;;;;7.25;100.00;96619.69;1221928;75;3013741;-72
2023/11/02 01:29:32;;;;;;;1.10;1.00;;;;;;;7.29;100.00;96614.03;1225912;75;2924612;-71
2023/11/02 01:32:05;;;;;;;1.10;1.00;;;;;;;7.28;100.00;96629.63;1222047;75;3024562;-67
2023/11/02 01:34:40;;;;;;;1.50;1.40;;;;;;;7.02;100.00;96624.88;1222523;75;2928114;-70
2023/11/02 01:37:14;;;;;;;2.80;2.25;;;;;;;6.91;100.00;96621.28;1223267;75;3036257;-69
2023/11/02 01:40:11;;;;;;;2.30;2.05;;;;;;;6.87;100.00;96618.75;1221872;75;3073779;-71
2023/11/02 01:42:46;;;;;;;2.20;1.90;;;;;;;6.95;100.00;96616.38;1224994;75;2927021;-70
2023/11/02 01:45:26;;;;;;;2.10;1.50;;;;;;;7.11;100.00;96612.34;1179914;75;4065587;-69
2023/11/02 01:48:08;;;;;;;1.40;1.30;;;;;;;7.05;100.00;96615.03;1224439;75;2936486;-72
2023/11/02 01:50:50;;;;;;;3.05;2.55;;;;;;;6.29;100.00;96618.47;1225650;75;2929663;-71
2023/11/02 01:53:39;;;;;;;4.60;3.70;;;;;;;6.55;100.00;96610.44;1225487;75;2932627;-71
2023/11/02 01:56:41;;;;;;;5.20;3.00;;;;;;;6.58;100.00;96597.88;1225902;75;2924046;-67
2023/11/02 01:59:25;;;;;;;3.30;2.95;;;;;;;6.71;100.00;96590.13;1225877;75;2920812;-69
2023/11/02 02:02:08;;;;;;;2.40;2.10;;;;;;;6.77;100.00;96607.25;1222321;75;3056479;-72
2023/11/02 02:04:50;;;;;;;3.60;2.50;;;;;;;6.64;100.00;96592.50;1226323;75;2885422;-72
2023/11/02 02:07:36;;;;;;;3.10;2.50;;;;;;;6.68;100.00;96591.06;1225847;75;2920593;-71
2023/11/02 02:10:22;;;;;;;3.15;2.20;;;;;;;6.53;100.00;96590.38;1221318;75;3093271;-72
2023/11/02 02:13:25;;;;;;;2.35;1.85;;;;;;;6.65;100.00;96592.03;1225332;75;2921004;-69
2023/11/02 02:16:10;;;;;;;1.90;1.50;;;;;;;6.75;100.00;96587.19;1225304;75;2926085;-69
2023/11/02 02:18:52;;;;;;;1.65;1.55;;;;;;;6.71;100.00;96579.25;1184471;75;4982472;-70
2023/11/02 02:21:34;;;;;;;1.30;1.10;;;;;;;6.70;100.00;96574.28;1225327;75;2923041;-69
2023/11/02 02:24:12;;;;;;;1.15;1.05;;;;;;;6.64;100.00;96568.78;1221847;75;2951154;-69
2023/11/02 02:27:29;;;;;;;1.05;0.95;;;;;;;6.72;100.00;96558.25;1224955;75;2928180;-67
2023/11/02 02:30:42;;;;;;;1.75;0.90;;;;;;;6.37;100.00;96559.78;1221880;75;2998057;-69
2023/11/02 02:34:12;;;;;;;2.90;1.80;;;;;;;6.39;100.00;96556.59;1197957;75;4910202;-68
2023/11/02 02:36:56;;;;;;;3.65;2.20;;;;;;;6.18;100.00;96555.81;1224846;75;2923595;-70
2023/11/02 02:39:31;;;;;;;4.70;2.40;;;;;;;6.05;100.00;96558.84;1224804;75;2916799;-69
2023/11/02 02:42:09;;;;;;;2.85;2.20;;;;;;;6.27;100.00;96549.50;1225381;75;2920026;-69
2023/11/02 02:44:44;;;;;;;3.30;2.35;;;;;;;6.22;100.00;96550.94;1210699;75;3926692;-71
2023/11/02 02:47:20;;;;;;;2.05;1.70;;;;;;;6.17;100.00;96551.59;1210055;75;4043171;-69
2023/11/02 02:49:55;;;;;;;2.10;1.60;;;;;;;6.17;100.00;96549.63;1220807;75;3064363;-68
2023/11/02 02:52:34;;;;;;;3.25;1.95;;;;;;;6.26;100.00;96553.47;1221837;75;3015495;-67
2023/11/02 02:55:12;;;;;;;2.15;1.75;;;;;;;6.37;100.00;96543.50;1224706;75;2925902;-71
2023/11/02 02:57:49;;;;;;;2.40;1.80;;;;;;;6.27;100.00;96542.09;1223893;75;2920488;-69
2023/11/02 03:00:25;;;;;;;2.10;1.50;;;;;;;6.33;100.00;96540.22;1225571;75;2919747;-68
2023/11/02 03:03:00;;;;;;;1.80;1.50;;;;;;;6.35;100.00;96526.91;1225217;75;2916590;-70
2023/11/02 03:05:35;;;;;;;1.85;1.50;;;;;;;6.22;100.00;96521.03;1211474;75;4012179;-70
2023/11/02 03:08:14;;;;;;;1.80;1.60;;;;;;;6.00;100.00;96532.34;1209271;75;3975791;-71
2023/11/02 03:10:49;;;;;;;1.70;1.50;;;;;;;6.14;100.00;96537.00;1224483;75;2916316;-70
2023/11/02 03:13:23;;;;;;;2.65;2.15;;;;;;;6.01;100.00;96538.53;1212251;75;3917720;-70
2023/11/02 03:15:58;;;;;;;2.40;2.20;;;;;;;5.96;100.00;96543.41;1222321;75;3012948;-69
2023/11/02 03:18:35;;;;;;;3.25;2.25;;;;;;;5.96;100.00;96538.00;1222689;75;3001740;-69
2023/11/02 03:21:09;;;;;;;2.75;1.90;;;;;;;6.01;100.00;96533.09;1208235;75;4083357;-70
2023/11/02 03:23:51;;;;;;;1.40;1.30;;;;;;;6.00;100.00;96526.16;1225143;75;2926629;-69
2023/11/02 03:26:36;;;;;;;2.65;1.90;;;;;;;5.81;100.00;96531.03;1223416;75;2965741;-69
2023/11/02 03:29:22;;;;;;;2.05;1.60;;;;;;;5.72;100.00;96531.91;1223507;75;3004079;-69
2023/11/02 03:32:04;;;;;;;2.70;1.95;;;;;;;5.85;100.00;96526.91;1224845;75;2920709;-70
2023/11/02 03:34:49;;;;;;;3.15;2.75;;;;;;;5.84;100.00;96519.97;1223388;75;2927500;-68
2023/11/02 03:37:35;;;;;;;2.00;1.70;;;;;;;6.07;100.00;96512.19;1219577;75;3075124;-66
2023/11/02 03:40:33;;;;;;;2.00;1.70;;;;;;;5.87;100.00;96521.00;1224741;75;2920544;-69
2023/11/02 03:43:14;;;;;;;1.90;1.70;;;;;;;5.79;100.00;96503.59;1215487;75;3447512;-68
2023/11/02 03:46:22;;;;;;;2.75;1.70;;;;;;;5.93;100.00;96508.25;1197880;75;5064692;-68
2023/11/02 03:49:09;;;;;;;4.80;2.50;;;;;;;5.87;100.00;96500.03;1225348;75;2925421;-69
2023/11/02 03:51:53;;;;;;;2.30;1.90;;;;;;;5.64;100.00;96506.34;1223823;75;2974975;-68
2023/11/02 03:54:47;;;;;;;2.20;2.00;;;;;;;5.67;100.00;96491.84;1219791;75;3094415;-68
2023/11/02 03:57:32;;;;;;;1.90;1.70;;;;;;;5.71;100.00;96495.09;1223134;75;2953105;-70
2023/11/02 04:00:12;;;;;;;2.05;1.65;;;;;;;5.67;100.00;96484.44;1225192;75;2922327;-67
2023/11/02 04:02:51;;;;;;;2.15;1.55;;;;;;;5.73;100.00;96484.53;1224429;75;2940566;-67
2023/11/02 04:05:25;;;;;;;3.00;2.50;;;;;;;5.70;100.00;96480.03;1225042;75;2915993;-69
2023/11/02 04:08:09;;;;;;;2.65;1.80;;;;;;;5.65;100.00;96488.84;1224583;75;2918810;-69
2023/11/02 04:10:54;;;;;;;1.85;1.40;;;;;;;5.67;100.00;96494.53;1222592;75;3023110;-72
2023/11/02 04:13:43;;;;;;;2.60;1.90;;;;;;;5.55;100.00;96488.19;1224339;75;2938847;-70
2023/11/02 04:16:16;;;;;;;2.10;1.90;;;;;;;5.80;100.00;96476.00;1224525;75;2924428;-71
2023/11/02 04:18:48;;;;;;;1.50;1.40;;;;;;;5.84;100.00;96470.34;1223865;75;2924409;-70
2023/11/02 04:21:21;;;;;;;2.05;1.60;;;;;;;5.63;100.00;96477.69;1224962;75;2918575;-70
2023/11/02 04:23:53;;;;;;;2.70;2.00;;;;;;;5.37;100.00;96470.16;1225164;75;2918966;-70
2023/11/02 04:26:26;;;;;;;2.45;2.10;;;;;;;5.19;100.00;96459.50;1221209;75;3118563;-67
2023/11/02 04:29:02;;;;;;;2.80;2.10;;;;;;;5.09;100.00;96459.59;1221333;75;3029794;-70
2023/11/02 04:31:35;;;;;;;2.10;1.75;;;;;;;5.33;100.00;96466.88;1223957;75;2933435;-68
2023/11/02 04:34:08;;;;;;;2.75;2.05;;;;;;;5.27;100.00;96461.38;1220251;75;3052333;-71
2023/11/02 04:36:41;;;;;;;4.40;2.30;;;;;;;5.03;100.00;96458.03;1223621;75;2922351;-70
2023/11/02 04:39:14;;;;;;;2.90;2.40;;;;;;;5.23;100.00;96449.97;1222437;75;2946935;-72
2023/11/02 04:41:47;;;;;;;2.40;2.05;;;;;;;5.01;100.00;96453.06;1222392;75;2937743;-69
2023/11/02 04:44:22;;;;;;;2.30;1.95;;;;;;;5.07;100.00;96456.59;1224102;75;2928371;-69
2023/11/02 04:46:55;;;;;;;1.85;1.65;;;;;;;5.39;100.00;96459.59;1224870;75;2923566;-68
2023/11/02 04:49:27;;;;;;;1.75;1.30;;;;;;;5.38;100.00;96447.22;1211169;75;3952561;-69
2023/11/02 04:52:02;;;;;;;1.80;1.30;;;;;;;5.23;100.00;96452.69;1209788;75;3860743;-69
2023/11/02 04:54:36;;;;;;;1.20;1.10;;;;;;;5.31;100.00;96442.94;1224115;75;2926301;-70
2023/11/02 04:57:09;;;;;;;1.00;0.95;;;;;;;5.31;100.00;96448.34;1224065;75;2933591;-69
2023/11/02 04:59:46;;;;;;;2.35;1.80;;;;;;;4.96;100.00;96450.25;1225217;75;2923917;-69
2023/11/02 05:02:19;;;;;;;2.55;1.90;;;;;;;4.94;100.00;96453.44;1224813;75;2921752;-69
2023/11/02 05:04:52;;;;;;;2.40;1.90;;;;;;;5.15;100.00;96442.66;1222353;75;3038914;-70
2023/11/02 05:07:24;;;;;;;3.60;2.30;;;;;;;5.17;100.00;96442.94;1225018;75;2939643;-68
2023/11/02 05:09:57;;;;;;;3.00;2.05;;;;;;;5.22;100.00;96451.19;1224954;75;2925013;-69
2023/11/02 05:12:29;;;;;;;2.50;2.05;;;;;;;5.01;100.00;96433.34;1222012;75;2967839;-68
2023/11/02 05:15:05;;;;;;;2.90;2.00;;;;;;;5.06;100.00;96427.25;1221188;75;2980119;-70
2023/11/02 05:17:37;;;;;;;3.00;1.70;;;;;;;4.95;100.00;96424.34;1218712;75;3100447;-69
2023/11/02 05:20:11;;;;;;;2.85;1.90;;;;;;;5.11;100.00;96432.75;1221309;75;3064381;-70
2023/11/02 05:22:44;;;;;;;2.85;2.10;;;;;;;5.01;100.00;96425.94;1224980;75;2924846;-69
2023/11/02 05:25:17;;;;;;;2.50;1.80;;;;;;;5.03;100.00;96426.22;1218581;75;3099237;-68
2023/11/02 05:27:50;;;;;;;6.90;5.15;;;;;;;4.89;100.00;96421.56;1224631;75;2924290;-68
2023/11/02 05:30:25;;;;;;;9.30;6.80;;;;;;;4.91;100.00;96411.72;1208618;75;3898256;-67
2023/11/02 05:32:58;;;;;;;8.80;6.95;;;;;;;5.00;100.00;96405.44;1225898;75;2924520;-68
2023/11/02 05:35:31;;;;;;;7.05;5.45;;;;;;;4.99;100.00;96406.66;1222112;75;3044802;-66
2023/11/02 05:38:03;;;;;;;8.15;6.00;;;;;;;5.03;100.00;96409.94;1224128;75;2928192;-71
2023/11/02 05:40:36;;;;;;;5.25;4.20;;;;;;;5.00;100.00;96427.13;1154624;75;8706811;-67
2023/11/02 05:43:09;;;;;;;6.35;4.65;;;;;;;5.00;100.00;96419.00;1222181;75;2982264;-67
2023/11/02 05:45:44;;;;;;;7.60;6.40;;;;;;;5.07;100.00;96404.31;1222632;75;3018180;-69
2023/11/02 05:48:17;;;;;;;8.75;6.70;;;;;;;4.99;100.00;96406.66;1223346;75;2926372;-70
2023/11/02 05:50:49;;;;;;;6.80;5.60;;;;;;;4.85;100.00;96393.88;1222304;75;2995195;-68
2023/11/02 05:53:22;;;;;;;5.75;4.95;;;;;;;5.05;100.00;96393.19;1224416;75;2927505;-68
2023/11/02 05:55:55;;;;;;;5.40;3.45;;;;;;;4.89;100.00;96399.84;1223562;75;2928557;-71
2023/11/02 05:58:27;;;;;;;3.60;3.00;;;;;;;4.76;100.00;96391.25;1221586;75;3115371;-70
2023/11/02 06:01:02;;;;;;;3.20;2.55;;;;;;;5.03;100.00;96382.81;1206073;75;4044517;-70
2023/11/02 06:03:35;;;;;;;3.25;2.50;;;;;;;5.06;100.00;96378.44;1210765;75;3969942;-71
2023/11/02 06:06:09;;;;;;;3.65;2.80;;;;;;;4.83;100.00;96375.34;1208301;75;3942769;-69
2023/11/02 06:08:43;;;;;;;3.70;2.90;;;;;;;4.98;100.00;96382.72;1224023;75;2929641;-71
2023/11/02 06:11:16;;;;;;;3.45;2.90;;;;;;;4.84;100.00;96398.53;1217821;75;3071172;-70
2023/11/02 06:13:49;;;;;;;5.50;4.00;;;;;;;4.70;100.00;96400.03;1209719;75;3915249;-67
2023/11/02 06:16:24;;;;;;;5.25;3.80;;;;;;;5.11;100.00;96399.47;1224439;83;2919800;-75
2023/11/02 06:18:56;;;;;;;4.50;3.25;;;;;;;5.13;100.00;96391.59;1224419;75;2921330;-69
2023/11/02 06:21:29;;;;;;;4.80;3.80;;;;;;;5.09;100.00;96396.47;1221351;75;2941463;-68
2023/11/02 06:24:02;;;;;;;5.35;3.30;;;;;;;5.00;100.00;96402.00;1224559;75;2920006;-70
2023/11/02 06:26:34;;;;;;;5.90;3.70;;;;;;;5.11;100.00;96392.06;1222235;75;2932374;-74
2023/11/02 06:29:07;;;;;;;4.45;3.10;;;;;;;6.24;100.00;96409.16;1224648;75;2925503;-72
2023/11/02 06:31:42;;;;;;;9.00;5.55;;;;;;;7.08;100.00;96407.25;1218985;75;3103499;-69
2023/11/02 06:34:17;;;;;;;5.20;4.20;;;;;;;9.40;100.00;96398.66;1221778;75;3052461;-70
2023/11/02 06:36:50;;;;;;;4.70;3.35;;;;;;;10.56;100.00;96413.72;1221464;75;3082051;-68
2023/11/02 06:39:23;;;;;;;4.25;3.15;;;;;;;9.35;100.00;96404.88;1224428;75;2921407;-66
2023/11/02 06:41:56;;;;;;;4.65;3.05;;;;;;;9.01;100.00;96415.06;1222229;75;2926372;-68
2023/11/02 06:44:29;;;;;;;3.05;2.65;;;;;;;9.78;100.00;96418.97;1223940;75;2923506;-69
2023/11/02 06:47:05;;;;;;;2.20;2.00;;;;;;;10.10;100.00;96417.88;1225294;75;2925094;-69
2023/11/02 06:49:38;;;;;;;2.55;1.80;;;;;;;10.18;100.00;96408.66;1223369;75;2928289;-67
2023/11/02 06:52:10;;;;;;;2.85;2.10;;;;;;;12.72;92.14;96409.22;1223702;75;2920423;-66
2023/11/02 06:54:44;;;;;;;3.55;2.70;;;;;;;15.54;71.46;96394.28;1224637;75;2922834;-68
2023/11/02 06:57:17;;;;;;;2.45;1.70;;;;;;;17.91;61.61;96392.09;1224529;75;2923694;-69
2023/11/02 06:59:50;;;;;;;1.55;1.45;;;;;;;19.34;57.72;96376.69;1224790;75;2922852;-72
2023/11/02 07:02:26;;;;;;;1.80;1.40;;;;;;;20.20;53.35;96364.22;1224234;75;2932560;-68
2023/11/02 07:04:58;;;;;;;2.75;1.65;;;;;;;21.16;52.75;96368.94;1224448;75;2933874;-72
2023/11/02 07:07:31;;;;;;;1.90;1.40;;;;;;;22.19;48.54;96357.00;1223797;75;2929186;-67
2023/11/02 07:10:04;;;;;;;2.25;1.40;;;;;;;22.93;47.21;96368.53;1223055;75;2923009;-72
2023/11/02 07:12:36;;;;;;;3.65;2.10;;;;;;;22.39;47.93;96372.41;1218550;75;2932506;-70
2023/11/02 07:15:11;;;;;;;3.40;1.70;;;;;;;24.26;44.70;96354.31;1222833;75;2932094;-68
2023/11/02 07:17:47;;;;;;;3.85;1.35;;;;;;;25.53;42.54;96351.66;1220581;75;3065831;-69
2023/11/02 07:20:20;;;;;;;2.60;1.30;;;;;;;26.24;40.88;96340.28;1223530;75;2918502;-70
2023/11/02 07:22:52;;;;;;;3.00;1.50;;;;;;;24.99;41.65;96347.72;1224659;75;2926853;-74
2023/11/02 07:25:25;;;;;;;2.65;1.45;;;;;;;25.22;42.00;96340.69;1223018;75;2925810;-68
2023/11/02 07:27:58;;;;;;;3.45;2.25;;;;;;;25.43;41.62;96329.38;1222583;75;2936165;-71
2023/11/02 07:30:30;;;;;;;2.75;1.90;;;;;;;27.39;39.32;96335.94;1224080;75;2920257;-69
2023/11/02 07:33:07;;;;;;;1.70;1.20;;;;;;;27.89;38.93;96337.09;1222346;75;2977930;-70
2023/11/02 07:35:39;;;;;;;2.50;1.60;;;;;;;28.45;37.00;96344.06;1223793;75;2920580;-71
2023/11/02 07:38:12;;;;;;;1.95;1.10;;;;;;;24.07;43.44;96349.59;1223347;75;2920371;-68
2023/11/02 07:40:45;;;;;;;3.45;1.35;;;;;;;22.87;45.81;96346.50;1222531;75;2932069;-70
2023/11/02 07:43:18;;;;;;;1.55;0.95;;;;;;;25.83;42.24;96321.88;1224200;75;2932188;-71
2023/11/02 07:45:50;;;;;;;1.80;1.10;;;;;;;26.76;41.80;96334.06;1224086;75;2921672;-69
2023/11/02 07:48:26;;;;;;;3.20;1.50;;;;;;;24.83;42.94;96322.25;1225135;75;2912163;-74
2023/11/02 07:50:59;;;;;;;3.05;1.55;;;;;;;24.99;42.82;96328.13;1224032;75;2925116;-72
2023/11/02 07:53:31;;;;;;;2.60;1.60;;;;;;;24.45;44.68;96321.28;1224437;75;2919137;-75
2023/11/02 07:56:05;;;;;;;3.00;1.80;;;;;;;25.22;43.40;96323.88;1224904;75;2924178;-73
2023/11/02 07:58:42;;;;;;;3.35;1.60;;;;;;;23.14;46.57;96328.81;1224312;75;2926689;-69
2023/11/02 08:01:15;;;;;;;4.35;2.65;;;;;;;20.95;50.73;96313.03;1223517;75;2930353;-73
2023/11/02 08:03:50;;;;;;;6.00;2.90;;;;;;;19.93;53.79;96309.31;1222035;75;2980542;-73
2023/11/02 08:06:23;;;;;;;4.30;2.65;;;;;;;19.00;55.90;96307.94;1225584;75;2920744;-70
2023/11/02 08:08:55;;;;;;;4.05;2.60;;;;;;;17.90;58.12;96299.28;1224400;75;2930053;-74
2023/11/02 08:11:28;;;;;;;9.00;2.45;;;;;;;19.37;57.70;96298.56;1223683;75;2930015;-72
2023/11/02 08:14:01;;;;;;;2.35;1.40;;;;;;;21.16;53.00;96293.06;1224226;75;2920889;-69
2023/11/02 08:16:33;;;;;;;2.10;1.50;;;;;;;21.95;50.44;96289.81;1221042;75;3106396;-72
2023/11/02 08:19:09;;;;;;;2.60;1.70;;;;;;;21.79;51.20;96280.28;1223360;75;2920638;-68
2023/11/02 08:21:42;;;;;;;1.50;1.20;;;;;;;22.09;49.91;96276.91;1224832;75;2928736;-70
2023/11/02 08:24:15;;;;;;;3.05;1.35;;;;;;;22.31;49.60;96265.91;1224763;75;2925587;-71
2023/11/02 08:26:47;;;;;;;2.05;1.40;;;;;;;22.82;49.25;96257.53;1224878;75;2917557;-70
2023/11/02 08:29:20;;;;;;;1.35;1.00;;;;;;;23.05;47.38;96245.84;1222975;75;2916372;-73
2023/11/02 08:31:53;;;;;;;1.85;0.70;;;;;;;21.95;48.19;96252.88;1224485;75;2921386;-71
2023/11/02 08:34:28;;;;;;;2.60;1.50;;;;;;;21.54;49.30;96253.44;1224918;75;2936123;-71
2023/11/02 08:37:00;;;;;;;2.10;1.30;;;;;;;21.46;49.80;96245.25;1225117;75;2928427;-70
2023/11/02 08:39:35;;;;;;;2.00;1.05;;;;;;;21.40;50.16;96241.28;1225157;75;2923992;-73
2023/11/02 08:42:08;;;;;;;1.85;0.90;;;;;;;21.45;51.37;96237.47;1224677;75;2922780;-70
2023/11/02 08:44:43;;;;;;;2.00;1.10;;;;;;;19.71;52.50;96222.19;1224954;75;2926718;-69
2023/11/02 08:47:16;;;;;;;2.00;1.20;;;;;;;18.53;55.70;96225.06;1225349;75;2918257;-71
2023/11/02 08:49:51;;;;;;;1.75;0.95;;;;;;;19.76;55.25;96226.03;1224119;75;2924411;-75
2023/11/02 08:52:24;;;;;;;1.55;0.95;;;;;;;20.50;54.59;96215.78;1224485;75;2928383;-71
2023/11/02 08:54:57;;;;;;;2.25;0.90;;;;;;;17.72;57.02;96220.88;1224184;75;2922636;-74
2023/11/02 08:57:29;;;;;;;1.15;0.85;;;;;;;18.88;56.56;96221.69;1224981;75;2915769;-70
2023/11/02 09:00:04;;;;;;;1.85;0.90;;;;;;;19.10;55.97;96209.69;1224156;75;2926749;-70
2023/11/02 09:02:37;;;;;;;1.20;0.80;;;;;;;19.54;57.45;96219.41;1224499;75;2927844;-72
2023/11/02 09:05:13;;;;;;;1.65;0.70;;;;;;;19.27;56.71;96216.56;1223559;75;2930550;-70
2023/11/02 09:07:45;;;;;;;1.85;0.80;;;;;;;17.74;57.68;96207.94;1224550;75;2937086;-70
2023/11/02 09:10:21;;;;;;;0.85;0.60;;;;;;;18.89;56.72;96206.53;1198954;75;4799754;-72
2023/11/02 09:12:54;;;;;;;1.85;0.85;;;;;;;17.81;58.78;96204.44;1223889;75;2923582;-71
2023/11/02 09:15:27;;;;;;;1.90;0.90;;;;;;;18.54;57.08;96189.78;1221628;75;2979561;-73
2023/11/02 09:18:00;;;;;;;0.70;0.50;;;;;;;19.10;57.76;96190.25;1222648;75;2918223;-73
2023/11/02 09:20:35;;;;;;;1.60;1.00;;;;;;;18.34;58.56;96191.59;1224375;75;2923501;-71
2023/11/02 09:23:08;;;;;;;1.85;0.90;;;;;;;17.19;61.66;96184.50;1223158;75;2931503;-70
2023/11/02 09:25:41;;;;;;;1.60;0.70;;;;;;;18.03;61.46;96182.72;1225306;75;2924806;-71
2023/11/02 09:28:14;;;;;;;1.75;0.90;;;;;;;17.66;59.70;96190.63;1224976;75;2928204;-71
2023/11/02 09:30:49;;;;;;;1.80;0.80;;;;;;;17.16;63.71;96193.19;1223253;75;2921103;-70
2023/11/02 09:33:21;;;;;;;1.40;0.90;;;;;;;16.70;63.94;96179.38;1224725;75;2922801;-70
2023/11/02 09:35:57;;;;;;;2.45;1.20;;;;;;;16.72;68.02;96174.06;1224306;75;2919695;-70
2023/11/02 09:38:30;;;;;;;2.40;1.10;;;;;;;15.98;67.94;96164.59;1225187;75;2915698;-73
2023/11/02 09:41:02;;;;;;;2.35;0.95;;;;;;;16.68;67.66;96160.59;1224679;75;2922455;-71
2023/11/02 09:43:36;;;;;;;3.90;1.50;;;;;;;16.37;68.63;96159.84;1222383;75;2950696;-71
2023/11/02 09:46:09;;;;;;;4.75;1.40;;;;;;;15.54;71.74;96151.56;1224443;75;2932695;-74
2023/11/02 09:48:42;;;;;;;3.55;1.30;;;;;;;14.81;76.50;96139.06;1224935;75;2933000;-70
2023/11/02 09:51:18;;;;;;;2.20;1.20;;;;;;;15.28;78.46;96141.53;1223874;75;2922435;-68
2023/11/02 09:53:51;;;;;;;1.80;0.90;;;;;;;16.22;73.81;96130.22;1224814;75;2977476;-69
2023/11/02 09:56:24;;;;;;;1.25;0.75;;;;;;;16.78;70.91;96128.38;1222288;75;3035517;-72
2023/11/02 09:58:59;;;;;;;1.10;0.70;;;;;;;16.91;68.42;96113.63;1225452;75;2924711;-67
2023/11/02 10:01:32;;;;;;;1.40;0.80;;;;;;;16.31;70.67;96109.59;1224070;75;2924749;-70
2023/11/02 10:04:05;;;;;;;1.55;0.90;;;;;;;16.54;71.72;96113.06;1221093;75;3095343;-69
2023/11/02 10:06:43;;;;;;;2.45;1.30;;;;;;;15.53;75.27;96110.72;1196483;75;5171449;-69
2023/11/02 10:09:17;;;;;;;12.70;2.30;;;;;;;15.58;74.56;96098.06;1221821;75;2972745;-73
2023/11/02 10:11:50;;;;;;;3.00;1.40;;;;;;;15.72;75.58;96104.94;1223862;75;2924930;-73
2023/11/02 10:14:24;;;;;;;4.25;1.35;;;;;;;15.54;77.55;96106.69;1224300;75;2926156;-68
2023/11/02 10:17:05;;;;;;;2.95;1.20;;;;;;;15.44;76.84;96106.50;1223969;75;2924098;-69
2023/11/02 10:19:38;;;;;;;2.90;1.25;;;;;;;15.13;80.41;96111.16;1223069;75;2922780;-70
2023/11/02 10:22:13;;;;;;;4.90;1.50;;;;;;;14.93;82.36;96098.91;1223773;75;2928984;-70
2023/11/02 10:24:50;;;;;;;1.60;0.90;;;;;;;15.77;77.44;96096.47;1223585;75;2926908;-68
2023/11/02 10:27:24;;;;;;;2.05;1.00;;;;;;;16.08;76.42;96093.03;1224232;75;2922733;-70
2023/11/02 10:29:57;;;;;;;0.95;0.75;;;;;;;15.96;75.65;96085.09;1224164;75;2926182;-70
2023/11/02 10:32:31;;;;;;;3.15;1.15;;;;;;;15.44;81.03;96089.19;1223808;75;2919010;-73
2023/11/02 10:35:04;;;;;;;5.40;1.40;;;;;;;15.69;80.24;96081.91;1225034;75;2922588;-73
2023/11/02 10:37:41;;;;;;;3.55;1.40;;;;;;;15.51;80.95;96072.69;1223926;75;2932951;-70
2023/11/02 10:40:16;;;;;;;3.85;1.50;;;;;;;15.33;82.93;96066.19;1223873;75;2930470;-69
2023/11/02 10:42:50;;;;;;;2.40;0.90;;;;;;;15.54;82.43;96066.06;1223669;67;2924126;-72
2023/11/02 10:45:24;;;;;;;2.75;0.85;;;;;;;15.68;83.26;96060.38;1224796;75;2921719;-67
2023/11/02 10:47:57;;;;;;;1.70;0.95;;;;;;;15.83;83.23;96057.69;1224069;75;2926480;-70
2023/11/02 10:50:31;;;;;;;3.30;0.60;;;;;;;16.06;82.81;96054.19;1223032;75;2941816;-70
2023/11/02 10:53:10;;;;;;;3.20;0.80;;;;;;;16.33;79.65;96040.72;1224111;75;2921617;-72
2023/11/02 10:55:52;;;;;;;2.95;0.80;;;;;;;16.89;77.90;96024.97;1223472;75;2932389;-68
2023/11/02 10:58:26;;;;;;;1.85;0.75;;;;;;;16.38;78.69;96031.53;1223571;75;2937724;-69
2023/11/02 11:00:59;;;;;;;2.15;0.50;;;;;;;16.04;79.45;96029.16;1219887;75;3063455;-71
2023/11/02 11:03:31;;;;;;;1.50;0.55;;;;;;;16.28;78.31;96016.81;1224089;75;2931713;-71
2023/11/02 11:06:06;;;;;;;1.75;0.70;;;;;;;16.09;79.43;96026.22;1195318;75;5175631;-71
2023/11/02 11:08:42;;;;;;;1.90;0.90;;;;;;;16.45;80.62;96011.47;1223658;75;2934492;-73
2023/11/02 11:11:16;;;;;;;1.05;0.65;;;;;;;16.29;80.96;96005.22;1223167;75;2938721;-69
2023/11/02 11:13:48;;;;;;;2.15;0.70;;;;;;;16.35;81.71;96013.31;1223622;75;2930455;-71
2023/11/02 11:16:24;;;;;;;1.60;0.90;;;;;;;16.48;79.09;95999.28;1222919;75;2933739;-71
2023/11/02 11:18:57;;;;;;;3.90;1.10;;;;;;;16.49;80.06;96006.28;1223485;75;2929734;-72
2023/11/02 11:21:32;;;;;;;2.95;0.70;;;;;;;16.37;79.37;95992.13;1218344;75;3200604;-74
2023/11/02 11:24:18;;;;;;;1.55;0.70;;;;;;;16.48;78.86;95982.72;1225156;75;2865769;-69
2023/11/02 11:26:54;;;;;;;2.30;0.65;;;;;;;17.25;75.09;95979.66;1224041;75;2922747;-69
2023/11/02 11:29:42;;;;;;;1.70;0.70;;;;;;;18.09;72.62;95981.09;1224702;75;2926554;-69
2023/11/02 11:32:37;;;;;;;2.50;0.90;;;;;;;18.75;69.32;95953.81;1223615;75;2931924;-70
2023/11/02 11:35:17;;;;;;;0.40;0.40;;;;;;;19.06;69.14;95953.44;1224663;75;2918419;-70
2023/11/02 11:37:57;;;;;;;1.80;0.65;;;;;;;18.66;65.88;95944.09;1224515;75;2959853;-68
2023/11/02 11:40:44;;;;;;;2.10;0.75;;;;;;;18.83;66.77;95943.41;1225080;75;2924804;-72
2023/11/02 11:43:19;;;;;;;0.90;0.50;;;;;;;18.96;67.03;95947.13;1223726;75;2920236;-69
2023/11/02 11:45:51;;;;;;;2.00;0.50;;;;;;;17.62;69.98;95936.41;1224748;75;2927599;-70
2023/11/02 11:48:42;;;;;;;2.70;0.85;;;;;;;17.76;70.41;95936.88;1222697;75;2985433;-70
2023/11/02 11:51:39;;;;;;;1.15;0.60;;;;;;;17.81;69.19;95932.44;1223866;75;2923097;-72
2023/11/02 11:54:14;;;;;;;2.05;0.50;;;;;;;17.28;71.52;95933.56;1224764;75;2940441;-72
2023/11/02 11:56:50;;;;;;;0.95;0.40;;;;;;;17.65;70.50;95918.72;1223641;75;2923007;-69
2023/11/02 12:00:13;;;;;;;1.75;0.60;;;;;;;17.19;71.21;95915.53;1225223;75;2923077;-68
2023/11/02 12:02:49;;;;;;;2.75;0.80;;;;;;;17.38;70.48;95892.91;1224596;75;2923481;-67